createdAt,value
2018-11-20T00:02:50.761Z,78.55
2018-11-20T00:05:42.065Z,78.13
2018-11-20T00:08:46.135Z,77.88
2018-11-20T00:11:41.824Z,78.08
2018-11-20T00:14:36.040Z,77.41
2018-11-20T00:17:14.913Z,78.12
2018-11-20T00:20:09.843Z,77.62
2018-11-20T00:22:57.401Z,77.21
2018-11-20T00:25:44.184Z,76.37
2018-11-20T00:28:30.693Z,77.92
2018-11-20T00:31:20.554Z,78.18
2018-11-20T00:34:29.819Z,77.43
2018-11-20T00:37:16.962Z,78.37
2018-11-20T00:39:58.387Z,77.42
2018-11-20T00:42:46.701Z,78.39
2018-11-20T00:45:36.694Z,78.42
2018-11-20T00:48:30.580Z,78.32
2018-11-20T00:51:21.710Z,78.23
2018-11-20T00:54:17.983Z,78.60
2018-11-20T00:57:21.077Z,77.89
2018-11-20T01:00:21.659Z,78.40
2018-11-20T01:03:13.169Z,77.97
2018-11-20T01:06:21.838Z,78.12
2018-11-20T01:09:14.074Z,78.07
2018-11-20T01:12:02.930Z,78.32
2018-11-20T01:14:57.421Z,79.00
2018-11-20T01:17:47.505Z,79.46
2018-11-20T01:20:27.738Z,79.46
2018-11-20T01:23:11.958Z,78.62
2018-11-20T01:26:02.290Z,78.46
2018-11-20T01:28:49.998Z,77.97
2018-11-20T01:31:43.551Z,78.27
2018-11-20T01:34:37.490Z,78.83
2018-11-20T01:37:34.396Z,78.46
2018-11-20T01:40:24.075Z,78.34
2018-11-20T01:43:18.285Z,78.35
2018-11-20T01:46:09.516Z,78.60
2018-11-20T01:49:00.835Z,77.65
2018-11-20T01:51:58.565Z,78.21
2018-11-20T01:54:50.570Z,78.28
2018-11-20T01:57:47.577Z,78.69
2018-11-20T02:00:38.793Z,78.87
2018-11-20T02:03:29.024Z,79.44
2018-11-20T02:06:20.263Z,78.92
2018-11-20T02:09:06.223Z,79.78
2018-11-20T02:11:58.074Z,78.85
2018-11-20T02:15:07.426Z,79.29
2018-11-20T02:18:07.741Z,79.70
2018-11-20T02:20:55.032Z,78.45
2018-11-20T02:23:48.610Z,77.30
2018-11-20T02:26:39.855Z,78.91
2018-11-20T02:29:36.935Z,79.04
2018-11-20T02:32:19.741Z,79.15
2018-11-20T02:35:10.917Z,78.68
2018-11-20T02:37:56.621Z,79.10
2018-11-20T02:40:44.929Z,78.19
2018-11-20T02:43:42.151Z,78.70
2018-11-20T02:46:39.702Z,78.20
2018-11-20T02:49:26.942Z,78.44
2018-11-20T02:52:20.069Z,78.36
2018-11-20T02:55:00.202Z,78.07
2018-11-20T02:57:47.307Z,78.16
2018-11-20T03:00:36.713Z,78.42
2018-11-20T03:03:28.280Z,77.92
2018-11-20T03:06:18.478Z,77.33
2018-11-20T03:09:08.394Z,78.08
2018-11-20T03:12:05.532Z,77.79
2018-11-20T03:14:55.283Z,77.65
2018-11-20T03:17:47.477Z,77.68
2018-11-20T03:20:34.328Z,77.61
2018-11-20T03:23:37.994Z,77.80
2018-11-20T03:26:25.581Z,78.19
2018-11-20T03:29:20.127Z,77.37
2018-11-20T03:32:01.560Z,78.63
2018-11-20T03:34:51.449Z,78.17
2018-11-20T03:37:41.087Z,78.19
2018-11-20T03:40:31.136Z,78.69
2018-11-20T03:43:13.306Z,78.56
2018-11-20T03:45:59.210Z,77.88
2018-11-20T03:49:02.696Z,78.30
2018-11-20T03:51:46.332Z,79.23
2018-11-20T03:54:48.469Z,78.58
2018-11-20T03:57:41.484Z,78.94
2018-11-20T04:00:28.556Z,79.06
2018-11-20T04:03:13.116Z,78.66
2018-11-20T04:06:00.802Z,78.66
2018-11-20T04:08:50.719Z,78.86
2018-11-20T04:11:36.274Z,78.54
2018-11-20T04:14:26.093Z,78.98
2018-11-20T04:17:22.936Z,79.59
2018-11-20T04:20:29.088Z,78.54
2018-11-20T04:23:18.642Z,79.43
2018-11-20T04:26:08.377Z,79.46
2018-11-20T04:28:59.282Z,79.42
2018-11-20T04:32:01.342Z,79.92
2018-11-20T04:34:49.711Z,80.60
2018-11-20T04:37:45.863Z,80.61
2018-11-20T04:40:30.116Z,80.85
2018-11-20T04:43:14.061Z,80.30
2018-11-20T04:46:01.878Z,80.53
2018-11-20T04:49:01.921Z,81.04
2018-11-20T04:52:08.296Z,80.79
2018-11-20T04:54:52.762Z,80.84
2018-11-20T04:57:58.710Z,80.82
2018-11-20T05:00:49.891Z,80.99
2018-11-20T05:03:29.642Z,81.33
2018-11-20T05:06:18.012Z,81.62
2018-11-20T05:09:00.606Z,81.57
2018-11-20T05:11:49.583Z,81.44
2018-11-20T05:14:37.051Z,80.88
2018-11-20T05:17:28.656Z,81.35
2018-11-20T05:20:17.526Z,81.45
2018-11-20T05:23:08.619Z,80.70
2018-11-20T05:25:59.820Z,80.82
2018-11-20T05:28:50.998Z,81.39
2018-11-20T05:31:33.414Z,81.04
2018-11-20T05:34:30.776Z,81.37
2018-11-20T05:37:24.506Z,80.95
2018-11-20T05:40:28.305Z,81.18
2018-11-20T05:43:32.094Z,81.90
2018-11-20T05:46:21.747Z,81.78
2018-11-20T05:49:07.863Z,81.46
2018-11-20T05:51:57.755Z,81.39
2018-11-20T05:55:04.213Z,81.21
2018-11-20T05:57:52.582Z,81.41
2018-11-20T06:00:51.825Z,81.45
2018-11-20T06:03:41.561Z,81.41
2018-11-20T06:06:42.220Z,81.65
2018-11-20T06:09:33.791Z,81.95
2018-11-20T06:12:20.676Z,81.15
2018-11-20T06:15:17.706Z,81.45
2018-11-20T06:18:20.761Z,81.73
2018-11-20T06:21:16.507Z,81.50
2018-11-20T06:23:52.656Z,82.14
2018-11-20T06:26:59.301Z,80.97
2018-11-20T06:29:47.803Z,81.91
2018-11-20T06:32:52.255Z,82.05
2018-11-20T06:35:42.027Z,81.28
2018-11-20T06:38:28.975Z,81.71
2018-11-20T06:41:28.889Z,82.08
2018-11-20T06:44:19.935Z,81.99
2018-11-20T06:47:09.292Z,82.24
2018-11-20T06:50:09.599Z,82.40
2018-11-20T06:52:57.359Z,81.63
2018-11-20T06:56:03.683Z,82.28
2018-11-20T06:58:51.377Z,82.16
2018-11-20T07:01:36.021Z,83.14
2018-11-20T07:04:23.233Z,82.76
2018-11-20T07:07:14.636Z,82.71
2018-11-20T07:10:05.824Z,82.47
2018-11-20T07:12:56.269Z,82.51
2018-11-20T07:15:50.093Z,83.06
2018-11-20T07:18:44.502Z,82.90
2018-11-20T07:21:41.436Z,82.48
2018-11-20T07:24:47.989Z,82.58
2018-11-20T07:27:54.316Z,83.26
2018-11-20T07:30:41.413Z,82.62
2018-11-20T07:33:41.443Z,83.13
2018-11-20T07:36:41.799Z,83.11
2018-11-20T07:39:29.209Z,82.70
2018-11-20T07:42:16.453Z,82.70
2018-11-20T07:45:07.391Z,82.27
2018-11-20T07:47:54.862Z,82.53
2018-11-20T07:50:37.840Z,82.89
2018-11-20T07:53:28.879Z,82.48
2018-11-20T07:56:18.361Z,83.11
2018-11-20T07:59:04.099Z,82.86
2018-11-20T08:01:55.240Z,82.86
2018-11-20T08:04:42.161Z,82.56
2018-11-20T08:07:29.338Z,82.69
2018-11-20T08:10:32.592Z,82.82
2018-11-20T08:13:26.803Z,82.80
2018-11-20T08:16:16.507Z,82.27
2018-11-20T08:19:04.240Z,82.49
2018-11-20T08:21:55.492Z,82.88
2018-11-20T08:24:50.533Z,82.46
2018-11-20T08:27:37.522Z,82.59
2018-11-20T08:30:37.798Z,82.51
2018-11-20T08:33:26.118Z,82.17
2018-11-20T08:36:17.409Z,82.12
2018-11-20T08:39:08.601Z,82.56
2018-11-20T08:41:52.110Z,82.23
2018-11-20T08:44:52.713Z,81.82
2018-11-20T08:47:50.244Z,82.21
2018-11-20T08:50:44.133Z,82.52
2018-11-20T08:53:42.271Z,82.31
2018-11-20T08:56:35.030Z,82.57
2018-11-20T08:59:22.683Z,82.72
2018-11-20T09:02:17.334Z,82.43
2018-11-20T09:05:20.716Z,82.23
2018-11-20T09:08:07.751Z,82.63
2018-11-20T09:10:54.461Z,81.88
2018-11-20T09:13:41.415Z,82.34
2018-11-20T09:16:32.638Z,82.19
2018-11-20T09:19:19.384Z,82.23
2018-11-20T09:22:25.734Z,82.22
2018-11-20T09:25:20.025Z,81.77
2018-11-20T09:28:07.172Z,81.18
2018-11-20T09:31:19.594Z,81.48
2018-11-20T09:34:16.460Z,81.73
2018-11-20T09:37:17.895Z,81.98
2018-11-20T09:40:52.242Z,81.83
2018-11-20T09:43:48.692Z,81.90
2018-11-20T09:46:43.212Z,81.61
2018-11-20T09:49:35.248Z,81.96
2018-11-20T09:52:29.789Z,82.06
2018-11-20T09:55:24.433Z,81.90
2018-11-20T09:58:28.206Z,81.02
2018-11-20T10:01:31.794Z,81.69
2018-11-20T10:04:34.744Z,81.53
2018-11-20T10:07:28.565Z,81.41
2018-11-20T10:10:26.902Z,81.14
2018-11-20T10:13:17.860Z,80.91
2018-11-20T10:16:04.840Z,81.41
2018-11-20T10:18:53.200Z,80.18
2018-11-20T10:21:51.590Z,79.83
2018-11-20T10:24:41.653Z,80.90
2018-11-20T10:27:23.569Z,79.87
2018-11-20T10:30:06.303Z,79.87
2018-11-20T10:32:56.775Z,80.21
2018-11-20T10:35:39.414Z,79.18
2018-11-20T10:38:26.744Z,79.16
2018-11-20T10:41:18.118Z,79.03
2018-11-20T10:44:12.452Z,79.13
2018-11-20T10:47:06.805Z,79.83
2018-11-20T10:50:13.238Z,79.11
2018-11-20T10:52:58.195Z,79.11
2018-11-20T10:55:47.980Z,79.42
2018-11-20T10:58:47.530Z,79.46
2018-11-20T11:01:44.426Z,79.15
2018-11-20T11:04:31.528Z,79.21
2018-11-20T11:07:29.321Z,79.43
2018-11-20T11:10:26.327Z,79.84
2018-11-20T11:13:57.244Z,79.51
2018-11-20T11:16:51.107Z,79.91
2018-11-20T11:19:37.307Z,79.63
2018-11-20T11:22:27.660Z,79.48
2018-11-20T11:25:16.732Z,80.03
2018-11-20T11:28:19.231Z,79.57
2018-11-20T11:31:08.016Z,79.76
2018-11-20T11:33:49.579Z,80.04
2018-11-20T11:36:43.064Z,80.49
2018-11-20T11:39:36.419Z,80.09
2018-11-20T11:42:45.083Z,80.41
2018-11-20T11:45:31.070Z,80.36
2018-11-20T11:48:30.718Z,80.32
2018-11-20T11:51:25.553Z,80.67
2018-11-20T11:54:21.549Z,81.29
2018-11-20T11:57:26.890Z,80.88
2018-11-20T12:00:20.470Z,80.86
2018-11-20T12:05:51.799Z,80.27
2018-11-20T12:08:37.601Z,80.43
2018-11-20T12:11:24.123Z,80.21
2018-11-20T12:14:07.662Z,80.01
2018-11-20T12:16:54.595Z,80.55
2018-11-20T12:19:43.780Z,80.78
2018-11-20T12:22:40.755Z,80.42
2018-11-20T12:25:43.133Z,80.05
2018-11-20T12:28:38.844Z,80.05
2018-11-20T12:31:24.913Z,80.43
2018-11-20T12:34:12.434Z,81.26
2018-11-20T12:37:11.814Z,81.34
2018-11-20T12:39:51.550Z,81.03
2018-11-20T12:42:38.645Z,80.55
2018-11-20T12:45:24.493Z,80.62
2018-11-20T12:48:23.845Z,80.83
2018-11-20T12:51:27.363Z,80.90
2018-11-20T12:54:16.811Z,80.67
2018-11-20T12:57:22.472Z,80.84
2018-11-20T13:00:21.703Z,81.01
2018-11-20T13:03:08.098Z,81.01
2018-11-20T13:05:58.259Z,80.63
2018-11-20T13:08:48.774Z,81.54
2018-11-20T13:11:46.919Z,81.71
2018-11-20T13:14:49.599Z,80.94
2018-11-20T13:17:28.027Z,81.90
2018-11-20T13:20:14.292Z,81.42
2018-11-20T13:23:11.975Z,81.26
2018-11-20T13:26:05.415Z,80.88
2018-11-20T13:28:55.828Z,81.81
2018-11-20T13:31:41.901Z,80.69
2018-11-20T13:34:50.305Z,80.72
2018-11-20T13:37:41.130Z,80.79
2018-11-20T13:41:28.544Z,80.63
2018-11-20T13:44:34.200Z,80.63
2018-11-20T13:47:33.907Z,80.23
2018-11-20T13:50:24.636Z,81.21
2018-11-20T13:53:24.791Z,80.56
2018-11-20T13:56:27.366Z,80.65
2018-11-20T13:59:13.921Z,80.00
2018-11-20T14:02:04.337Z,80.27
2018-11-20T14:04:53.841Z,79.97
2018-11-20T14:07:44.167Z,79.45
2018-11-20T14:10:32.247Z,79.81
2018-11-20T14:13:35.073Z,80.19
2018-11-20T14:16:28.647Z,79.16
2018-11-20T14:19:24.293Z,79.13
2018-11-20T14:22:22.112Z,79.31
2018-11-20T14:25:11.546Z,78.92
2018-11-20T14:27:49.187Z,78.62
2018-11-20T14:30:37.336Z,78.54
2018-11-20T14:33:36.807Z,79.04
2018-11-20T14:36:22.896Z,79.73
2018-11-20T14:39:11.867Z,79.19
2018-11-20T14:41:59.479Z,78.63
2018-11-20T14:44:46.296Z,79.48
2018-11-20T14:47:48.784Z,79.01
2018-11-20T14:50:37.819Z,78.48
2018-11-20T14:53:28.388Z,78.16
2018-11-20T14:56:11.232Z,79.16
2018-11-20T14:59:11.111Z,78.20
2018-11-20T15:02:01.316Z,77.87
2018-11-20T15:04:47.748Z,78.07
2018-11-20T15:07:32.769Z,78.21
2018-11-20T15:10:20.491Z,78.44
2018-11-20T15:13:09.383Z,78.15
2018-11-20T15:16:05.943Z,77.97
2018-11-20T15:18:53.451Z,78.22
2018-11-20T15:21:32.807Z,77.21
2018-11-20T15:24:32.816Z,77.44
2018-11-20T15:27:18.990Z,77.13
2018-11-20T15:30:08.981Z,77.03
2018-11-20T15:32:55.230Z,76.32
2018-11-20T15:35:41.637Z,77.45
2018-11-20T15:38:20.808Z,76.21
2018-11-20T15:41:08.971Z,76.54
2018-11-20T15:43:55.460Z,76.80
2018-11-20T15:46:41.604Z,77.12
2018-11-20T15:49:38.099Z,76.60
2018-11-20T15:52:28.850Z,75.98
2018-11-20T15:55:14.956Z,75.80
2018-11-20T15:58:11.887Z,76.79
2018-11-20T16:01:18.370Z,76.44
2018-11-20T16:04:19.908Z,76.60
2018-11-20T16:07:02.058Z,76.49
2018-11-20T16:09:51.293Z,76.56
2018-11-20T16:12:57.289Z,77.02
2018-11-20T16:15:59.742Z,75.94
2018-11-20T16:18:53.080Z,76.46
2018-11-20T16:21:46.431Z,77.40
2018-11-20T16:24:55.160Z,76.57
2018-11-20T16:27:46.467Z,76.75
2018-11-20T16:30:32.471Z,76.75
2018-11-20T16:33:19.069Z,76.44
2018-11-20T16:36:22.870Z,76.09
2018-11-20T16:39:08.916Z,76.80
2018-11-20T16:41:59.427Z,76.57
2018-11-20T16:44:41.854Z,77.38
2018-11-20T16:47:28.169Z,76.18
2018-11-20T16:50:21.251Z,75.87
2018-11-20T16:53:09.578Z,76.49
2018-11-20T16:56:04.265Z,76.89
2018-11-20T16:59:06.905Z,76.57
2018-11-20T17:01:57.534Z,77.08
2018-11-20T17:04:57.057Z,76.09
2018-11-20T17:07:47.226Z,76.93
2018-11-20T17:10:46.845Z,76.83
2018-11-20T17:13:33.246Z,76.92
2018-11-20T17:16:26.611Z,76.36
2018-11-20T17:19:35.622Z,76.34
2018-11-20T17:22:22.072Z,76.66
2018-11-20T17:25:08.155Z,76.06
2018-11-20T17:28:07.261Z,77.17
2018-11-20T17:30:54.812Z,77.45
2018-11-20T17:33:44.240Z,77.35
2018-11-20T17:36:33.593Z,76.20
2018-11-20T17:39:32.879Z,76.21
2018-11-20T17:42:20.410Z,76.12
2018-11-20T17:45:17.000Z,76.07
2018-11-20T17:48:11.103Z,75.76
2018-11-20T17:50:59.047Z,76.58
2018-11-20T17:53:38.778Z,75.78
2018-11-20T17:56:32.210Z,75.59
2018-11-20T17:59:22.461Z,75.86
2018-11-20T18:02:12.766Z,75.82
2018-11-20T18:04:50.143Z,76.34
2018-11-20T18:07:36.830Z,75.95
2018-11-20T18:10:26.672Z,76.59
2018-11-20T18:13:15.945Z,77.13
2018-11-20T18:16:02.164Z,76.63
2018-11-20T18:18:55.584Z,76.53
2018-11-20T18:21:49.036Z,76.73
2018-11-20T18:24:39.581Z,76.48
2018-11-20T18:27:30.069Z,76.34
2018-11-20T18:30:10.753Z,77.66
2018-11-20T18:32:58.858Z,76.56
2018-11-20T18:36:01.827Z,77.16
2018-11-20T18:39:02.021Z,76.74
2018-11-20T18:41:42.704Z,77.35
2018-11-20T18:44:38.910Z,76.97
2018-11-20T18:47:25.537Z,77.03
2018-11-20T18:50:12.404Z,76.86
2018-11-20T18:53:08.547Z,77.39
2018-11-20T18:55:56.057Z,77.26
2018-11-20T18:58:41.125Z,77.46
2018-11-20T19:01:22.094Z,77.68
2018-11-20T19:04:08.107Z,77.14
2018-11-20T19:07:04.618Z,76.85
2018-11-20T19:10:01.427Z,77.15
2018-11-20T19:12:47.746Z,76.86
2018-11-20T19:15:33.953Z,76.76
2018-11-20T19:18:18.247Z,76.76
2018-11-20T19:20:58.999Z,77.15
2018-11-20T19:23:47.926Z,77.22
2018-11-20T19:26:34.363Z,77.52
2018-11-20T19:29:20.386Z,77.22
2018-11-20T19:32:06.922Z,77.42
2018-11-20T19:35:00.364Z,77.56
2018-11-20T19:38:06.381Z,77.66
2018-11-20T19:40:53.483Z,77.19
2018-11-20T19:43:39.728Z,77.35
2018-11-20T19:46:27.255Z,77.81
2018-11-20T19:49:20.966Z,78.26
2018-11-20T19:52:17.225Z,77.95
2018-11-20T19:54:58.862Z,77.83
2018-11-20T19:57:52.558Z,77.82
2018-11-20T20:00:51.959Z,77.42
2018-11-20T20:03:32.405Z,77.53
2018-11-20T20:06:18.594Z,76.94
2018-11-20T20:09:24.300Z,77.34
2018-11-20T20:12:16.584Z,77.42
2018-11-20T20:15:02.310Z,77.09
2018-11-20T20:18:04.940Z,77.18
2018-11-20T20:21:00.872Z,77.14
2018-11-20T20:24:03.434Z,78.04
2018-11-20T20:27:03.252Z,77.37
2018-11-20T20:29:49.764Z,77.36
2018-11-20T20:32:40.216Z,76.99
2018-11-20T20:35:26.688Z,78.11
2018-11-20T20:38:34.971Z,77.66
2018-11-20T20:41:29.010Z,77.22
2018-11-20T20:44:29.015Z,77.57
2018-11-20T20:47:22.427Z,77.46
2018-11-20T20:50:20.582Z,77.47
2018-11-20T20:53:09.884Z,77.05
2018-11-20T20:56:00.295Z,77.50
2018-11-20T20:58:49.331Z,77.30
2018-11-20T21:01:35.807Z,78.29
2018-11-20T21:04:12.980Z,78.18
2018-11-20T21:07:01.937Z,78.06
2018-11-20T21:09:52.251Z,78.33
2018-11-20T21:12:48.758Z,78.05
2018-11-20T21:15:39.913Z,77.86
2018-11-20T21:18:26.327Z,78.07
2018-11-20T21:21:16.812Z,77.91
2018-11-20T21:24:03.878Z,77.54
2018-11-20T21:27:08.567Z,77.17
2018-11-20T21:33:53.256Z,78.07
2018-11-20T21:37:08.673Z,77.71
2018-11-20T21:39:57.736Z,78.13
2018-11-20T21:43:05.155Z,77.36
2018-11-20T21:45:51.225Z,78.23
2018-11-20T21:48:57.110Z,77.88
2018-11-20T21:51:41.624Z,78.37
2018-11-20T21:54:31.937Z,78.33
2018-11-20T21:57:27.338Z,78.17
2018-11-20T22:00:11.407Z,78.46
2018-11-20T22:03:05.591Z,77.85
2018-11-20T22:05:53.157Z,78.12
2018-11-20T22:08:39.553Z,78.12
2018-11-20T22:11:55.251Z,78.37
2018-11-20T22:14:26.092Z,78.77
2018-11-20T22:20:20.675Z,78.31
2018-11-20T22:23:59.882Z,78.39
2018-11-20T22:26:49.944Z,78.52
2018-11-20T22:29:37.434Z,78.27
2018-11-20T22:32:27.887Z,77.92
2018-11-20T22:35:17.406Z,77.93
2018-11-20T22:38:08.272Z,78.52
2018-11-20T22:40:56.041Z,78.22
2018-11-20T22:43:36.676Z,78.76
2018-11-20T22:46:17.489Z,78.64
2018-11-20T22:49:06.940Z,78.31
2018-11-20T22:52:09.619Z,79.06
2018-11-20T22:54:55.995Z,78.64
2018-11-20T22:57:46.193Z,78.72
2018-11-20T23:00:32.268Z,78.69
2018-11-20T23:03:22.618Z,78.64
2018-11-20T23:06:10.592Z,78.52
2018-11-20T23:08:39.131Z,78.88
2018-11-20T23:11:07.585Z,78.54
2018-11-20T23:13:35.987Z,78.60
2018-11-20T23:16:04.965Z,78.60
2018-11-20T23:18:36.496Z,78.93
2018-11-20T23:21:04.985Z,78.79
2018-11-20T23:23:36.341Z,78.91
2018-11-20T23:26:11.049Z,78.89
2018-11-20T23:28:48.648Z,78.82
2018-11-20T23:31:24.236Z,78.59
2018-11-20T23:33:58.951Z,79.01
2018-11-20T23:36:32.583Z,78.84
2018-11-20T23:39:03.197Z,78.77
2018-11-20T23:41:31.926Z,78.87
2018-11-20T23:44:04.131Z,78.54
2018-11-20T23:46:32.572Z,78.60
2018-11-20T23:49:01.362Z,78.68
2018-11-20T23:51:33.083Z,79.12
2018-11-20T23:54:04.368Z,79.10
2018-11-20T23:56:32.903Z,79.06
2018-11-20T23:59:05.421Z,78.94
